KBDL

Bradley International Airport

Windsor Locks, Connecticut, USA
METAR KBDL 140051Z 35005KT 10SM OVC022 M03/M05 A3054 RMK AO2 SNE35 SLP343 P0000 T10331050
Observed Flight Rules
Dec-14 @ 00:51 UTC (42 minutes ago) Marginal Visual Flight Rules
Wind Visibility Clouds
350° at 5 knots 10 miles
  • Overcast at 2,200' AGL
Temperatures Readings Precipitation
Current -3°C / 27°F
Dewpoint -5°C / 23°F
Humidity 86%
Altimeter 30.54" Hg
Pressure 1034.3 hPa
Elevation 60
Current Rain 0.005
METAR KBDL 140051Z 35005KT 10SM OVC022 M03/M05 A3054 RMK AO2 SNE35 SLP343 P0000 T10331050
Observed Flight Rules
Dec-14 @ 00:51 UTC
(42 minutes ago)
MVFR
Wind Visibility
350° at 5 knots 10 miles
Clouds
  • Overcast at 2,200' AGL
Temperature Dewpoint
-3°C / 27°F -5°C / 23°F
Humidity Altimeter Pressure
86% 30.54" Hg 1034.3 hPa
Current Rain
0.005